Time;durP1;ratioP1;P1;durP2;ratioP2;P2;SDS_P1;SDS_P2;PMS_P1;PMS_P2;Temp;Humidity;BMP_temperature;BMP_pressure;BME280_temperature;BME280_humidity;BME280_pressure;Samples;Min_cycle;Max_cycle;Signal;HPM_P1;HPM_P2
2024/01/11 00:00:26;;;;;;;88.10;31.55;;;;;;;;;;5102701;27;20096;-67
2024/01/11 00:02:52;;;;;;;195.68;134.32;;;;;;;;;;5100635;27;20067;-67
2024/01/11 00:05:17;;;;;;;67.68;26.58;;;;;;;;;;5101593;27;20028;-68
2024/01/11 00:07:42;;;;;;;308.55;183.13;;;;;;;;;;5104396;27;20758;-65
2024/01/11 00:10:08;;;;;;;46.25;20.70;;;;;;;;;;5103081;27;20137;-66
2024/01/11 00:12:34;;;;;;;139.20;92.68;;;;;;;;;;5103611;27;20027;-66
2024/01/11 00:14:59;;;;;;;28.63;11.90;;;;;;;;;;5104495;27;20035;-66
2024/01/11 00:17:25;;;;;;;139.23;90.22;;;;;;;;;;5100181;27;20478;-66
2024/01/11 00:19:50;;;;;;;141.18;94.80;;;;;;;;;;5100957;27;20057;-66
2024/01/11 00:22:16;;;;;;;300.52;193.50;;;;;;;;;;5100486;27;20321;-66
2024/01/11 00:24:41;;;;;;;75.63;30.52;;;;;;;;;;5096109;27;20024;-65
2024/01/11 00:27:06;;;;;;;466.10;298.90;;;;;;;;;;5100852;27;20047;-66
2024/01/11 00:29:32;;;;;;;365.48;236.32;;;;;;;;;;5099712;27;20038;-66
2024/01/11 00:31:58;;;;;;;445.05;279.70;;;;;;;;;;5100022;27;20026;-66
2024/01/11 00:34:23;;;;;;;482.98;316.20;;;;;;;;;;5097624;27;20019;-67
2024/01/11 00:36:49;;;;;;;554.38;348.60;;;;;;;;;;5100060;27;21144;-67
2024/01/11 00:39:14;;;;;;;212.60;71.38;;;;;;;;;;5100156;27;20103;-66
2024/01/11 00:41:39;;;;;;;424.17;254.32;;;;;;;;;;5104693;27;20035;-68
2024/01/11 00:44:05;;;;;;;78.63;26.05;;;;;;;;;;5099716;27;20015;-67
2024/01/11 00:46:31;;;;;;;436.02;265.25;;;;;;;;;;5101851;27;20023;-67
2024/01/11 00:48:56;;;;;;;322.65;200.23;;;;;;;;;;5099970;27;20438;-67
2024/01/11 00:51:21;;;;;;;379.92;237.20;;;;;;;;;;5100688;27;20062;-70
2024/01/11 00:53:48;;;;;;;349.63;223.75;;;;;;;;;;5100051;27;20038;-66
2024/01/11 00:56:17;;;;;;;152.02;45.35;;;;;;;;;;5098106;27;20401;-65
2024/01/11 00:58:43;;;;;;;342.55;231.00;;;;;;;;;;5099253;27;20052;-65
2024/01/11 01:01:11;;;;;;;299.35;195.13;;;;;;;;;;5099828;27;20035;-67
2024/01/11 01:03:37;;;;;;;118.63;43.70;;;;;;;;;;5102766;27;20059;-67
2024/01/11 01:06:02;;;;;;;198.23;132.82;;;;;;;;;;5097548;27;20070;-70
2024/01/11 01:08:28;;;;;;;202.18;141.32;;;;;;;;;;5103490;27;20031;-70
2024/01/11 01:10:53;;;;;;;175.60;118.68;;;;;;;;;;5100677;27;20055;-69
2024/01/11 01:13:18;;;;;;;163.82;116.57;;;;;;;;;;5098518;27;20035;-70
2024/01/11 01:15:44;;;;;;;195.25;130.60;;;;;;;;;;5097443;27;20024;-69
2024/01/11 01:18:09;;;;;;;264.15;170.90;;;;;;;;;;5100691;27;20063;-70
2024/01/11 01:20:34;;;;;;;278.20;186.88;;;;;;;;;;5099484;27;20023;-69
2024/01/11 01:23:00;;;;;;;233.88;156.27;;;;;;;;;;5104633;27;20027;-71
2024/01/11 01:25:25;;;;;;;243.80;180.15;;;;;;;;;;5115911;27;20098;-71
2024/01/11 01:27:51;;;;;;;196.40;134.98;;;;;;;;;;5099586;27;20502;-70
2024/01/11 01:30:16;;;;;;;217.07;148.65;;;;;;;;;;5082154;28;20026;-70
2024/01/11 01:32:41;;;;;;;200.48;143.48;;;;;;;;;;5097363;27;20109;-70
2024/01/11 01:35:07;;;;;;;160.35;116.80;;;;;;;;;;5100894;27;20059;-70
2024/01/11 01:37:32;;;;;;;168.63;120.45;;;;;;;;;;5098866;27;20403;-70
2024/01/11 01:39:58;;;;;;;181.45;120.93;;;;;;;;;;5103688;27;20015;-69
2024/01/11 01:42:23;;;;;;;191.02;130.35;;;;;;;;;;5109645;27;20023;-69
2024/01/11 01:44:48;;;;;;;107.57;42.38;;;;;;;;;;5099901;28;20083;-69
2024/01/11 01:47:14;;;;;;;167.85;114.18;;;;;;;;;;5098036;28;20034;-71
2024/01/11 01:49:40;;;;;;;141.90;103.50;;;;;;;;;;5080328;28;20027;-69
2024/01/11 01:52:06;;;;;;;134.95;94.28;;;;;;;;;;5100558;28;20142;-71
2024/01/11 01:54:32;;;;;;;141.85;56.42;;;;;;;;;;5095006;28;20464;-70
2024/01/11 01:56:57;;;;;;;94.97;66.68;;;;;;;;;;5098981;28;20050;-71
2024/01/11 01:59:24;;;;;;;115.28;80.38;;;;;;;;;;5083012;28;20028;-69
2024/01/11 02:01:49;;;;;;;184.07;125.43;;;;;;;;;;5097680;28;20468;-69
2024/01/11 02:04:15;;;;;;;192.48;123.43;;;;;;;;;;5103509;27;20054;-69
2024/01/11 02:06:40;;;;;;;198.18;119.85;;;;;;;;;;5090634;27;20062;-69
2024/01/11 02:09:07;;;;;;;152.10;100.85;;;;;;;;;;5103132;27;20023;-69
2024/01/11 02:11:33;;;;;;;165.27;110.00;;;;;;;;;;5086375;27;20048;-69
2024/01/11 02:13:59;;;;;;;107.40;78.93;;;;;;;;;;5103444;27;20457;-69
2024/01/11 02:16:24;;;;;;;128.52;87.72;;;;;;;;;;5098735;27;20385;-69
2024/01/11 02:18:50;;;;;;;165.38;116.78;;;;;;;;;;5101821;27;20038;-70
2024/01/11 02:21:17;;;;;;;139.50;95.80;;;;;;;;;;5084736;27;20119;-70
2024/01/11 02:24:00;;;;;;;180.38;126.22;;;;;;;;;;5103297;27;20977;-70
2024/01/11 02:26:26;;;;;;;85.97;33.70;;;;;;;;;;5101847;27;20027;-71
2024/01/11 02:28:51;;;;;;;165.90;118.70;;;;;;;;;;5099611;27;20373;-69
2024/01/11 02:31:16;;;;;;;167.15;116.95;;;;;;;;;;5101753;27;20087;-71
2024/01/11 02:33:42;;;;;;;160.02;112.97;;;;;;;;;;5100082;27;20019;-70
2024/01/11 02:36:07;;;;;;;151.23;105.30;;;;;;;;;;5100275;27;20474;-69
2024/01/11 02:38:34;;;;;;;76.97;28.60;;;;;;;;;;5100328;27;20057;-70
2024/01/11 02:41:00;;;;;;;201.55;141.25;;;;;;;;;;5101542;27;20458;-70
2024/01/11 02:43:25;;;;;;;190.27;133.98;;;;;;;;;;5085236;27;20023;-69
2024/01/11 02:45:54;;;;;;;180.02;129.13;;;;;;;;;;5104330;27;20101;-70
2024/01/11 02:48:19;;;;;;;168.13;118.28;;;;;;;;;;5104937;27;20038;-69
2024/01/11 02:50:45;;;;;;;210.10;156.63;;;;;;;;;;5103257;27;20024;-70
2024/01/11 02:53:10;;;;;;;176.02;134.00;;;;;;;;;;5102645;27;20034;-69
2024/01/11 02:55:35;;;;;;;92.40;37.53;;;;;;;;;;5106132;27;20105;-69
2024/01/11 02:58:01;;;;;;;162.07;115.88;;;;;;;;;;5099880;27;20031;-69
2024/01/11 03:00:26;;;;;;;166.82;119.03;;;;;;;;;;5099864;27;20035;-70
2024/01/11 03:02:51;;;;;;;170.85;118.03;;;;;;;;;;5103733;27;20023;-69
2024/01/11 03:05:17;;;;;;;175.60;120.25;;;;;;;;;;5102448;27;20450;-68
2024/01/11 03:07:42;;;;;;;95.32;33.45;;;;;;;;;;5102042;27;20024;-70
2024/01/11 03:10:07;;;;;;;171.20;115.13;;;;;;;;;;5118118;27;20166;-68
2024/01/11 03:12:33;;;;;;;176.32;114.47;;;;;;;;;;5118842;27;20031;-69
2024/01/11 03:14:58;;;;;;;168.55;114.13;;;;;;;;;;5118885;27;20032;-68
2024/01/11 03:17:23;;;;;;;155.77;108.72;;;;;;;;;;5112517;27;20038;-69
2024/01/11 03:19:49;;;;;;;166.93;112.03;;;;;;;;;;5112180;27;20042;-69
2024/01/11 03:22:14;;;;;;;158.57;110.75;;;;;;;;;;5104068;27;20445;-70
2024/01/11 03:24:39;;;;;;;165.27;111.95;;;;;;;;;;5119255;27;20483;-68
2024/01/11 03:27:05;;;;;;;197.50;130.43;;;;;;;;;;5120395;27;20031;-69
2024/01/11 03:29:31;;;;;;;178.23;115.75;;;;;;;;;;5119798;27;20509;-68
2024/01/11 03:31:56;;;;;;;165.02;103.35;;;;;;;;;;5108066;27;20027;-68
2024/01/11 03:34:22;;;;;;;187.98;122.82;;;;;;;;;;5121156;27;20043;-69
2024/01/11 03:36:47;;;;;;;200.13;133.40;;;;;;;;;;5113213;27;20031;-69
2024/01/11 03:39:12;;;;;;;152.85;102.60;;;;;;;;;;5082974;27;20442;-69
2024/01/11 03:41:43;;;;;;;75.50;28.13;;;;;;;;;;5115519;27;20062;-68
2024/01/11 03:44:08;;;;;;;162.75;107.95;;;;;;;;;;5100460;27;20041;-68
2024/01/11 03:46:34;;;;;;;106.70;70.47;;;;;;;;;;5113429;27;20031;-68
2024/01/11 03:48:59;;;;;;;93.35;62.85;;;;;;;;;;5118007;27;20036;-69
2024/01/11 03:51:25;;;;;;;109.03;74.65;;;;;;;;;;5120673;27;20015;-69
2024/01/11 03:53:50;;;;;;;158.75;111.40;;;;;;;;;;5117442;27;20031;-69
2024/01/11 03:56:16;;;;;;;131.55;90.60;;;;;;;;;;5088298;27;20133;-68
2024/01/11 03:58:44;;;;;;;125.60;86.50;;;;;;;;;;5103976;27;20062;-69
2024/01/11 04:01:10;;;;;;;113.72;81.65;;;;;;;;;;5095118;27;20079;-68
2024/01/11 04:03:35;;;;;;;147.27;105.53;;;;;;;;;;5119808;27;20023;-69
2024/01/11 04:06:00;;;;;;;111.32;83.57;;;;;;;;;;5116596;27;20357;-70
2024/01/11 04:08:26;;;;;;;96.90;71.60;;;;;;;;;;5107133;27;20339;-67
2024/01/11 04:10:51;;;;;;;38.90;14.82;;;;;;;;;;5113955;27;20497;-67
2024/01/11 04:13:16;;;;;;;85.70;64.28;;;;;;;;;;5118898;27;20077;-68
2024/01/11 04:15:42;;;;;;;65.65;24.15;;;;;;;;;;5118359;27;20060;-68
2024/01/11 04:18:07;;;;;;;120.63;84.43;;;;;;;;;;5106750;27;20044;-68
2024/01/11 04:20:33;;;;;;;103.85;70.78;;;;;;;;;;5111039;27;20442;-70
2024/01/11 04:22:58;;;;;;;93.32;65.88;;;;;;;;;;5119411;27;20054;-69
2024/01/11 04:25:23;;;;;;;100.45;70.40;;;;;;;;;;5118393;27;20047;-69
2024/01/11 04:27:49;;;;;;;61.22;44.65;;;;;;;;;;5099989;27;21079;-69
2024/01/11 04:30:14;;;;;;;44.38;35.00;;;;;;;;;;5120259;27;20081;-69
2024/01/11 04:32:39;;;;;;;80.60;58.55;;;;;;;;;;5106929;27;20056;-69
2024/01/11 04:35:05;;;;;;;20.55;9.50;;;;;;;;;;5114608;27;20095;-69
2024/01/11 04:37:30;;;;;;;103.55;70.45;;;;;;;;;;5105469;27;20039;-69
2024/01/11 04:39:59;;;;;;;100.47;67.40;;;;;;;;;;5116286;27;20075;-69
2024/01/11 04:42:25;;;;;;;95.65;72.18;;;;;;;;;;5118867;27;20023;-70
2024/01/11 04:44:50;;;;;;;108.72;74.40;;;;;;;;;;5115540;27;20084;-69
2024/01/11 04:47:15;;;;;;;111.60;75.45;;;;;;;;;;5104587;27;20033;-69
2024/01/11 04:49:41;;;;;;;129.82;85.47;;;;;;;;;;5105701;27;20061;-69
2024/01/11 04:52:06;;;;;;;100.20;74.95;;;;;;;;;;5101977;27;20034;-69
2024/01/11 04:54:31;;;;;;;118.63;87.78;;;;;;;;;;5099915;27;20412;-69
2024/01/11 04:56:57;;;;;;;104.95;78.22;;;;;;;;;;5089246;27;20034;-68
2024/01/11 04:59:23;;;;;;;111.65;84.25;;;;;;;;;;5118345;27;20642;-68
2024/01/11 05:01:48;;;;;;;121.78;86.65;;;;;;;;;;5108992;27;20329;-68
2024/01/11 05:04:13;;;;;;;125.85;91.90;;;;;;;;;;5111071;27;20070;-67
2024/01/11 05:06:38;;;;;;;107.32;82.78;;;;;;;;;;5098475;27;20050;-68
2024/01/11 05:09:04;;;;;;;95.68;69.95;;;;;;;;;;5102301;27;20030;-67
2024/01/11 05:11:30;;;;;;;91.78;61.40;;;;;;;;;;5084687;27;20103;-68
2024/01/11 05:13:55;;;;;;;70.10;53.92;;;;;;;;;;5113612;27;20351;-68
2024/01/11 05:16:22;;;;;;;82.18;64.15;;;;;;;;;;5106603;27;20127;-69
2024/01/11 05:18:47;;;;;;;881.40;599.35;;;;;;;;;;5097661;27;20019;-69
2024/01/11 05:21:13;;;;;;;157.63;103.72;;;;;;;;;;5114730;27;20109;-69
2024/01/11 05:23:39;;;;;;;287.75;204.45;;;;;;;;;;5118065;27;20419;-68
2024/01/11 05:26:05;;;;;;;140.30;100.32;;;;;;;;;;5089037;28;20502;-69
2024/01/11 05:28:31;;;;;;;166.77;119.32;;;;;;;;;;5106976;27;20133;-68
2024/01/11 05:30:56;;;;;;;165.13;119.20;;;;;;;;;;5095354;27;20027;-69
2024/01/11 05:33:21;;;;;;;184.77;68.50;;;;;;;;;;5085245;27;20031;-68
2024/01/11 05:35:46;;;;;;;181.07;136.65;;;;;;;;;;5098276;28;20155;-67
2024/01/11 05:38:12;;;;;;;229.38;182.40;;;;;;;;;;5117214;27;20030;-69
2024/01/11 05:40:37;;;;;;;223.82;179.10;;;;;;;;;;5097783;27;20426;-68
2024/01/11 05:43:03;;;;;;;357.58;282.10;;;;;;;;;;5115688;27;20054;-68
2024/01/11 05:45:29;;;;;;;283.27;215.63;;;;;;;;;;5115359;28;20145;-68
2024/01/11 05:47:54;;;;;;;284.55;218.73;;;;;;;;;;5113543;28;20039;-69
2024/01/11 05:50:19;;;;;;;402.10;313.02;;;;;;;;;;5118133;28;20047;-69
2024/01/11 05:52:45;;;;;;;200.52;153.73;;;;;;;;;;5118378;28;20083;-69
2024/01/11 05:55:10;;;;;;;237.23;174.98;;;;;;;;;;5116927;28;20045;-69
2024/01/11 05:57:35;;;;;;;78.10;62.42;;;;;;;;;;5115971;28;20408;-69
2024/01/11 06:00:01;;;;;;;115.03;91.82;;;;;;;;;;5101782;28;20026;-69
2024/01/11 06:02:27;;;;;;;253.77;183.55;;;;;;;;;;5103712;28;20093;-69
2024/01/11 06:04:52;;;;;;;269.13;197.18;;;;;;;;;;5102564;28;20059;-68
2024/01/11 06:07:17;;;;;;;250.38;181.10;;;;;;;;;;5104085;28;20053;-68
2024/01/11 06:09:43;;;;;;;194.35;143.90;;;;;;;;;;5082515;28;20047;-69
2024/01/11 06:12:08;;;;;;;122.15;95.97;;;;;;;;;;5106460;28;20015;-71
2024/01/11 06:14:34;;;;;;;119.13;91.57;;;;;;;;;;5106309;28;20035;-72
2024/01/11 06:16:59;;;;;;;68.47;53.40;;;;;;;;;;5105724;28;20023;-71
2024/01/11 06:19:25;;;;;;;87.07;64.43;;;;;;;;;;5105462;28;20084;-70
2024/01/11 06:21:50;;;;;;;75.82;57.08;;;;;;;;;;5100096;28;20023;-71
2024/01/11 06:24:15;;;;;;;68.70;52.22;;;;;;;;;;5097606;28;20034;-70
2024/01/11 06:26:41;;;;;;;125.45;93.75;;;;;;;;;;5098648;28;20023;-70
2024/01/11 06:29:06;;;;;;;78.93;60.10;;;;;;;;;;5097607;28;20046;-70
2024/01/11 06:31:31;;;;;;;101.32;79.90;;;;;;;;;;5096715;28;20434;-70
2024/01/11 06:33:57;;;;;;;93.90;69.97;;;;;;;;;;5098663;28;20031;-70
2024/01/11 06:36:22;;;;;;;88.45;71.20;;;;;;;;;;5098868;28;20031;-71
2024/01/11 06:38:47;;;;;;;171.10;132.57;;;;;;;;;;5096291;28;20446;-71
2024/01/11 06:41:14;;;;;;;184.38;142.73;;;;;;;;;;5100198;28;20103;-69
2024/01/11 06:43:39;;;;;;;161.77;124.30;;;;;;;;;;5096498;28;20641;-70
2024/01/11 06:46:05;;;;;;;186.63;137.13;;;;;;;;;;5101043;28;20024;-70
2024/01/11 06:48:31;;;;;;;178.45;137.38;;;;;;;;;;5097582;27;20023;-70
2024/01/11 06:50:56;;;;;;;196.85;152.55;;;;;;;;;;5102944;27;20015;-69
2024/01/11 06:53:21;;;;;;;184.90;140.80;;;;;;;;;;5100714;27;20126;-69
2024/01/11 06:55:47;;;;;;;175.13;143.68;;;;;;;;;;5104566;27;20440;-71
2024/01/11 06:58:13;;;;;;;191.32;145.07;;;;;;;;;;5114811;27;20031;-70
2024/01/11 07:00:42;;;;;;;140.82;107.22;;;;;;;;;;5121139;27;20030;-68
2024/01/11 07:03:08;;;;;;;;;;;;;;;;;;5104058;27;20019;-68
2024/01/11 07:05:33;;;;;;;190.63;141.10;;;;;;;;;;5115492;27;19903;-70
2024/01/11 07:07:59;;;;;;;242.90;181.25;;;;;;;;;;5118844;27;20811;-68
2024/01/11 07:10:24;;;;;;;264.13;205.20;;;;;;;;;;5119047;27;20127;-69
2024/01/11 07:12:49;;;;;;;258.05;201.85;;;;;;;;;;5120299;27;20031;-68
2024/01/11 07:15:15;;;;;;;163.60;135.10;;;;;;;;;;5116831;27;20038;-69
2024/01/11 07:17:40;;;;;;;138.93;110.32;;;;;;;;;;5113507;27;20024;-69
2024/01/11 07:20:06;;;;;;;111.93;92.15;;;;;;;;;;5116349;27;20032;-70
2024/01/11 07:22:31;;;;;;;140.18;118.60;;;;;;;;;;5116963;27;20121;-69
2024/01/11 07:24:56;;;;;;;234.13;205.20;;;;;;;;;;5119467;27;20358;-69
2024/01/11 07:27:22;;;;;;;180.65;156.82;;;;;;;;;;5119439;27;20034;-69
2024/01/11 07:29:47;;;;;;;102.85;84.50;;;;;;;;;;5103283;27;20559;-69
2024/01/11 07:32:12;;;;;;;599.67;406.25;;;;;;;;;;5119333;27;20426;-70
2024/01/11 07:34:38;;;;;;;629.10;457.42;;;;;;;;;;5119092;27;20461;-70
2024/01/11 07:37:03;;;;;;;247.73;175.65;;;;;;;;;;5119046;27;20084;-70
2024/01/11 07:39:30;;;;;;;183.48;139.88;;;;;;;;;;5118504;27;20062;-71
2024/01/11 07:41:56;;;;;;;192.70;143.80;;;;;;;;;;5118119;27;20015;-71
2024/01/11 07:44:22;;;;;;;142.13;111.97;;;;;;;;;;5116185;27;20027;-71
2024/01/11 07:46:47;;;;;;;144.05;112.47;;;;;;;;;;5120497;27;20084;-71
2024/01/11 07:49:12;;;;;;;153.30;106.22;;;;;;;;;;5120256;27;20054;-71
2024/01/11 07:51:38;;;;;;;406.48;218.75;;;;;;;;;;5119234;27;20346;-70
2024/01/11 07:54:04;;;;;;;413.23;232.07;;;;;;;;;;5119361;27;20032;-71
2024/01/11 07:56:30;;;;;;;290.08;178.50;;;;;;;;;;5120307;27;20084;-70
2024/01/11 07:58:55;;;;;;;176.32;138.65;;;;;;;;;;5123643;27;20031;-71
2024/01/11 08:01:21;;;;;;;116.75;90.88;;;;;;;;;;5123389;27;20023;-71
2024/01/11 08:03:47;;;;;;;85.18;75.82;;;;;;;;;;5120088;27;20023;-71
2024/01/11 08:06:12;;;;;;;126.20;109.30;;;;;;;;;;5104750;27;20027;-70
2024/01/11 08:08:41;;;;;;;54.42;47.78;;;;;;;;;;5107695;27;20542;-71
2024/01/11 08:11:09;;;;;;;59.47;53.17;;;;;;;;;;5113647;27;20203;-71
2024/01/11 08:13:35;;;;;;;91.75;68.22;;;;;;;;;;5118708;27;20106;-70
2024/01/11 08:16:00;;;;;;;65.60;55.78;;;;;;;;;;5115135;27;20160;-71
2024/01/11 08:18:26;;;;;;;68.70;59.92;;;;;;;;;;5101105;27;20035;-71
2024/01/11 08:20:52;;;;;;;262.38;203.50;;;;;;;;;;5099955;27;21179;-71
2024/01/11 08:23:17;;;;;;;223.48;167.18;;;;;;;;;;5120270;27;20027;-69
2024/01/11 08:25:42;;;;;;;138.70;110.53;;;;;;;;;;5119171;27;20424;-70
2024/01/11 08:28:08;;;;;;;139.48;114.40;;;;;;;;;;5120010;27;20027;-71
2024/01/11 08:30:33;;;;;;;166.93;128.55;;;;;;;;;;5115563;27;20027;-70
2024/01/11 08:32:58;;;;;;;169.52;136.18;;;;;;;;;;5115589;27;20041;-70
2024/01/11 08:35:24;;;;;;;125.53;104.60;;;;;;;;;;5103835;27;20113;-71
2024/01/11 08:37:49;;;;;;;110.18;89.70;;;;;;;;;;5116239;27;20099;-69
2024/01/11 08:40:15;;;;;;;150.65;122.55;;;;;;;;;;5118831;27;20357;-71
2024/01/11 08:42:41;;;;;;;70.07;59.67;;;;;;;;;;5119735;27;20054;-69
2024/01/11 08:45:07;;;;;;;46.17;41.20;;;;;;;;;;5118188;27;20437;-69
2024/01/11 08:47:38;;;;;;;55.38;49.33;;;;;;;;;;5120234;27;20054;-69
2024/01/11 08:50:05;;;;;;;46.97;42.05;;;;;;;;;;5116752;27;20019;-69
2024/01/11 08:52:31;;;;;;;45.38;40.25;;;;;;;;;;5118816;27;20038;-69
2024/01/11 08:54:56;;;;;;;42.10;37.50;;;;;;;;;;5113531;27;20056;-68
2024/01/11 08:57:22;;;;;;;40.80;35.13;;;;;;;;;;5105215;27;20482;-69
2024/01/11 08:59:47;;;;;;;38.08;33.97;;;;;;;;;;5117971;27;20022;-68
2024/01/11 09:02:12;;;;;;;68.50;58.03;;;;;;;;;;5118073;27;20449;-69
2024/01/11 09:04:38;;;;;;;44.92;36.55;;;;;;;;;;5118008;27;20035;-69
2024/01/11 09:07:03;;;;;;;36.47;30.58;;;;;;;;;;5117827;27;20022;-69
2024/01/11 09:09:28;;;;;;;66.63;53.15;;;;;;;;;;5116260;27;20088;-68
2024/01/11 09:11:54;;;;;;;39.22;34.95;;;;;;;;;;5118011;27;20096;-69
2024/01/11 09:14:19;;;;;;;32.10;28.70;;;;;;;;;;5118511;27;20434;-69
2024/01/11 09:16:45;;;;;;;29.88;24.30;;;;;;;;;;5114888;27;20442;-68
2024/01/11 09:19:11;;;;;;;25.38;21.20;;;;;;;;;;5118140;27;20323;-67
2024/01/11 09:21:37;;;;;;;51.45;37.20;;;;;;;;;;5118287;27;20417;-67
2024/01/11 09:24:02;;;;;;;41.67;33.13;;;;;;;;;;5116636;27;20087;-67
2024/01/11 09:26:27;;;;;;;106.10;55.60;;;;;;;;;;5117318;27;20022;-67
2024/01/11 09:28:53;;;;;;;113.45;60.65;;;;;;;;;;5119881;27;20034;-67
2024/01/11 09:31:18;;;;;;;120.07;64.57;;;;;;;;;;5117257;27;20027;-67
2024/01/11 09:33:45;;;;;;;174.82;97.95;;;;;;;;;;5117104;27;20095;-67
2024/01/11 09:36:10;;;;;;;81.55;55.13;;;;;;;;;;5108478;27;20399;-70
2024/01/11 09:38:36;;;;;;;56.67;46.30;;;;;;;;;;5107838;27;20034;-68
2024/01/11 09:41:09;;;;;;;45.83;40.85;;;;;;;;;;5117497;27;20118;-68
2024/01/11 09:43:35;;;;;;;37.70;32.30;;;;;;;;;;5117361;27;20026;-67
2024/01/11 09:46:07;;;;;;;41.30;36.75;;;;;;;;;;5116911;27;20019;-69
2024/01/11 09:48:34;;;;;;;36.85;29.38;;;;;;;;;;5115645;27;20049;-68
2024/01/11 09:51:01;;;;;;;40.97;33.17;;;;;;;;;;5115092;28;20046;-69
2024/01/11 09:53:26;;;;;;;49.92;43.40;;;;;;;;;;5118055;28;20083;-70
2024/01/11 09:55:53;;;;;;;25.38;22.52;;;;;;;;;;5117943;28;20490;-68
2024/01/11 09:58:19;;;;;;;180.55;125.65;;;;;;;;;;5107728;28;20059;-68
2024/01/11 10:00:44;;;;;;;42.22;32.40;;;;;;;;;;5107341;28;20118;-67
2024/01/11 10:03:10;;;;;;;38.95;34.80;;;;;;;;;;5117565;28;20066;-68
2024/01/11 10:05:35;;;;;;;37.33;32.03;;;;;;;;;;5119201;28;20084;-67
2024/01/11 10:08:01;;;;;;;57.42;51.22;;;;;;;;;;5118281;28;20038;-68
2024/01/11 10:10:27;;;;;;;115.22;92.88;;;;;;;;;;5117729;28;20039;-69
2024/01/11 10:12:52;;;;;;;55.30;48.60;;;;;;;;;;5119244;28;20052;-66
2024/01/11 10:15:18;;;;;;;37.42;31.08;;;;;;;;;;5117607;28;20023;-67
2024/01/11 10:17:44;;;;;;;42.90;35.92;;;;;;;;;;5102108;28;20061;-68
2024/01/11 10:20:16;;;;;;;38.35;33.47;;;;;;;;;;5118408;28;20035;-66
2024/01/11 10:22:42;;;;;;;37.58;32.58;;;;;;;;;;5119575;28;20082;-67
2024/01/11 10:25:12;;;;;;;33.08;28.65;;;;;;;;;;5121527;27;20046;-66
2024/01/11 10:27:38;;;;;;;29.10;23.33;;;;;;;;;;5122401;27;20442;-67
2024/01/11 10:30:03;;;;;;;26.65;23.65;;;;;;;;;;5122145;27;20049;-69
2024/01/11 10:32:29;;;;;;;34.47;30.75;;;;;;;;;;5119298;27;20035;-68
2024/01/11 10:34:54;;;;;;;35.13;31.38;;;;;;;;;;5120195;27;20669;-67
2024/01/11 10:37:21;;;;;;;31.42;27.58;;;;;;;;;;5120111;27;20058;-67
2024/01/11 10:39:47;;;;;;;33.33;26.70;;;;;;;;;;5120137;27;20032;-67
2024/01/11 10:42:13;;;;;;;26.02;23.20;;;;;;;;;;5121151;27;20023;-68
2024/01/11 10:44:43;;;;;;;24.58;21.92;;;;;;;;;;5121385;27;20592;-66
2024/01/11 10:47:09;;;;;;;27.77;24.88;;;;;;;;;;5120370;27;20046;-68
2024/01/11 10:49:39;;;;;;;30.70;27.40;;;;;;;;;;5120601;27;20434;-67
2024/01/11 10:52:08;;;;;;;28.23;25.23;;;;;;;;;;5121944;27;20023;-70
2024/01/11 10:54:34;;;;;;;50.42;38.00;;;;;;;;;;5103069;27;20028;-68
2024/01/11 10:57:00;;;;;;;45.17;36.60;;;;;;;;;;5120711;27;20034;-68
2024/01/11 10:59:26;;;;;;;26.67;22.08;;;;;;;;;;5120593;27;20024;-68
2024/01/11 11:01:57;;;;;;;32.40;29.02;;;;;;;;;;5121956;27;20031;-68
2024/01/11 11:04:22;;;;;;;27.55;24.27;;;;;;;;;;5124795;27;20437;-68
2024/01/11 11:06:54;;;;;;;29.70;25.00;;;;;;;;;;5120106;27;20034;-68
2024/01/11 11:09:21;;;;;;;24.42;21.75;;;;;;;;;;5119166;27;20420;-68
2024/01/11 11:11:46;;;;;;;29.42;24.77;;;;;;;;;;5121995;27;20393;-67
2024/01/11 11:14:14;;;;;;;41.40;34.15;;;;;;;;;;5090643;27;20031;-68
2024/01/11 11:16:39;;;;;;;29.35;25.60;;;;;;;;;;5104424;27;20065;-67
2024/01/11 11:19:06;;;;;;;23.10;20.55;;;;;;;;;;5099813;27;20096;-67
2024/01/11 11:21:31;;;;;;;21.33;19.15;;;;;;;;;;5106404;27;20023;-68
2024/01/11 11:23:56;;;;;;;25.52;22.92;;;;;;;;;;5101672;27;20084;-67
2024/01/11 11:26:22;;;;;;;22.58;20.25;;;;;;;;;;5105893;27;20023;-64
2024/01/11 11:28:48;;;;;;;40.00;31.02;;;;;;;;;;5120828;27;20070;-65
2024/01/11 11:31:33;;;;;;;24.58;19.58;;;;;;;;;;5119703;27;21130;-65
2024/01/11 11:34:03;;;;;;;39.45;31.38;;;;;;;;;;5102003;27;20027;-68
2024/01/11 11:36:28;;;;;;;;;;;;;;;;;;5099806;27;20041;-65
2024/01/11 11:38:59;;;;;;;73.57;58.17;;;;;;;;;;5117952;27;20338;-65
2024/01/11 11:41:25;;;;;;;54.35;46.33;;;;;;;;;;5122023;27;20670;-66
2024/01/11 11:43:51;;;;;;;38.75;34.55;;;;;;;;;;5120249;27;20031;-65
2024/01/11 11:46:16;;;;;;;39.17;34.92;;;;;;;;;;5119613;27;20033;-66
2024/01/11 11:48:51;;;;;;;32.13;28.63;;;;;;;;;;5121991;27;20039;-65
2024/01/11 11:51:18;;;;;;;29.80;26.80;;;;;;;;;;5104900;27;20031;-65
2024/01/11 11:53:45;;;;;;;25.50;22.70;;;;;;;;;;5110541;27;20422;-65
2024/01/11 11:56:10;;;;;;;21.95;19.58;;;;;;;;;;5120920;27;20019;-65
2024/01/11 11:58:36;;;;;;;23.33;20.90;;;;;;;;;;5120734;27;20037;-66
2024/01/11 12:01:02;;;;;;;19.27;16.85;;;;;;;;;;5120744;27;20106;-68
2024/01/11 12:03:31;;;;;;;23.30;20.83;;;;;;;;;;5102288;27;20099;-68
2024/01/11 12:05:57;;;;;;;25.63;22.75;;;;;;;;;;5105581;27;20358;-66
2024/01/11 12:08:22;;;;;;;25.15;21.95;;;;;;;;;;5102508;27;20442;-66
2024/01/11 12:10:48;;;;;;;22.77;19.95;;;;;;;;;;5105026;27;20118;-68
2024/01/11 12:13:13;;;;;;;27.80;23.42;;;;;;;;;;5102525;27;20137;-67
2024/01/11 12:15:40;;;;;;;27.58;24.70;;;;;;;;;;5103711;27;20031;-68
2024/01/11 12:18:06;;;;;;;24.27;21.73;;;;;;;;;;5101429;27;20096;-67
2024/01/11 12:20:32;;;;;;;25.33;21.23;;;;;;;;;;5100270;27;20034;-67
2024/01/11 12:22:58;;;;;;;21.80;18.90;;;;;;;;;;5099699;27;20015;-68
2024/01/11 12:25:23;;;;;;;30.13;26.13;;;;;;;;;;5095535;27;20440;-66
2024/01/11 12:27:49;;;;;;;37.47;31.70;;;;;;;;;;5100491;27;20050;-65
2024/01/11 12:30:16;;;;;;;29.35;24.80;;;;;;;;;;5098552;27;20019;-65
2024/01/11 12:32:42;;;;;;;25.67;22.95;;;;;;;;;;5101345;27;20359;-66
2024/01/11 12:35:08;;;;;;;23.90;19.65;;;;;;;;;;5098029;27;20026;-64
2024/01/11 12:37:33;;;;;;;31.80;27.90;;;;;;;;;;5098169;27;20019;-64
2024/01/11 12:39:58;;;;;;;30.30;23.70;;;;;;;;;;5099308;27;20023;-66
2024/01/11 12:42:24;;;;;;;24.73;21.98;;;;;;;;;;5098583;27;20117;-66
2024/01/11 12:44:50;;;;;;;26.83;21.98;;;;;;;;;;5101518;27;20434;-68
2024/01/11 12:47:16;;;;;;;25.70;22.92;;;;;;;;;;5088761;27;20038;-66
2024/01/11 12:49:48;;;;;;;26.73;23.90;;;;;;;;;;5100280;27;20019;-66
2024/01/11 12:52:24;;;;;;;29.60;25.40;;;;;;;;;;5096581;27;20154;-65
2024/01/11 12:54:52;;;;;;;45.60;40.85;;;;;;;;;;5114582;27;20452;-68
2024/01/11 12:57:19;;;;;;;29.55;26.40;;;;;;;;;;5107701;27;20362;-66
2024/01/11 12:59:45;;;;;;;52.92;43.22;;;;;;;;;;5078837;27;20027;-68
2024/01/11 13:02:13;;;;;;;60.10;45.45;;;;;;;;;;5085041;27;20039;-65
2024/01/11 13:04:39;;;;;;;50.08;36.08;;;;;;;;;;5116064;27;20026;-66
2024/01/11 13:07:04;;;;;;;50.08;41.55;;;;;;;;;;5118507;27;20034;-67
2024/01/11 13:09:29;;;;;;;38.90;32.92;;;;;;;;;;5114038;27;20465;-67
2024/01/11 13:11:55;;;;;;;28.02;24.60;;;;;;;;;;5100816;27;20027;-67
2024/01/11 13:14:20;;;;;;;36.97;30.10;;;;;;;;;;5116864;27;20034;-67
2024/01/11 13:16:46;;;;;;;32.33;27.17;;;;;;;;;;5106318;27;20038;-68
2024/01/11 13:19:11;;;;;;;29.70;23.90;;;;;;;;;;5110378;27;20030;-66
2024/01/11 13:21:37;;;;;;;30.95;27.50;;;;;;;;;;5107340;27;20399;-67
2024/01/11 13:24:03;;;;;;;34.72;30.13;;;;;;;;;;5097602;27;20108;-67
2024/01/11 13:26:28;;;;;;;38.30;31.60;;;;;;;;;;5114010;27;20035;-68
2024/01/11 13:28:54;;;;;;;41.72;31.40;;;;;;;;;;5119290;27;20019;-66
2024/01/11 13:31:20;;;;;;;58.65;38.08;;;;;;;;;;5118937;27;20019;-66
2024/01/11 13:33:46;;;;;;;38.33;30.33;;;;;;;;;;5117485;27;20015;-67
2024/01/11 13:36:11;;;;;;;36.60;30.58;;;;;;;;;;5119462;27;20943;-67
2024/01/11 13:38:36;;;;;;;34.38;30.55;;;;;;;;;;5117400;27;20039;-66
2024/01/11 13:41:02;;;;;;;32.67;26.85;;;;;;;;;;5117361;27;20088;-67
2024/01/11 13:43:28;;;;;;;42.70;33.10;;;;;;;;;;5117215;27;20031;-66
2024/01/11 13:45:54;;;;;;;32.50;28.10;;;;;;;;;;5119811;27;20027;-66
2024/01/11 13:48:20;;;;;;;40.03;35.20;;;;;;;;;;5119177;27;20038;-66
2024/01/11 13:50:45;;;;;;;33.80;30.10;;;;;;;;;;5117992;27;20032;-67
2024/01/11 13:53:10;;;;;;;30.58;21.58;;;;;;;;;;5117545;28;20426;-66
2024/01/11 13:55:39;;;;;;;27.08;24.30;;;;;;;;;;5119008;28;20368;-66
2024/01/11 13:58:04;;;;;;;25.77;19.63;;;;;;;;;;5119503;27;20460;-65